Time;durP1;ratioP1;P1;durP2;ratioP2;P2;SDS_P1;SDS_P2;PMS_P1;PMS_P2;Temp;Humidity;BMP_temperature;BMP_pressure;BME280_temperature;BME280_humidity;BME280_pressure;Samples;Min_cycle;Max_cycle;Signal;HPM_P1;HPM_P2
2024/04/03 00:01:07;;;;;;;1.67;1.15;;;;;;;7.07;100.00;99071.34;5000886;28;20325;-73
2024/04/03 00:03:33;;;;;;;1.65;1.30;;;;;;;7.02;100.00;99070.09;5016764;28;20468;-73
2024/04/03 00:05:58;;;;;;;2.42;1.33;;;;;;;7.01;100.00;99079.13;5000038;28;20379;-73
2024/04/03 00:08:24;;;;;;;1.05;0.95;;;;;;;6.99;100.00;99073.16;5000788;28;20419;-73
2024/04/03 00:10:50;;;;;;;0.60;0.60;;;;;;;6.98;100.00;99074.16;5000235;28;20376;-73
2024/04/03 00:13:15;;;;;;;2.92;1.30;;;;;;;6.99;100.00;99075.00;5000055;28;20033;-73
2024/04/03 00:15:41;;;;;;;1.83;1.48;;;;;;;7.01;100.00;99075.59;5032901;28;20037;-73
2024/04/03 00:18:07;;;;;;;4.35;1.25;;;;;;;7.02;100.00;99078.09;5032545;28;20067;-74
2024/04/03 00:20:34;;;;;;;7.45;2.17;;;;;;;7.07;100.00;99076.69;5000045;28;20029;-73
2024/04/03 00:23:00;;;;;;;2.47;1.83;;;;;;;7.08;100.00;99079.16;5017207;28;20472;-73
2024/04/03 00:25:26;;;;;;;2.92;1.80;;;;;;;7.08;100.00;99073.00;5000865;28;20029;-73
2024/04/03 00:27:52;;;;;;;5.07;1.95;;;;;;;7.13;100.00;99078.59;5000422;28;20445;-73
2024/04/03 00:30:18;;;;;;;1.75;1.40;;;;;;;7.14;100.00;99082.91;5032652;28;20475;-73
2024/04/03 00:32:44;;;;;;;1.98;1.48;;;;;;;7.17;100.00;99085.19;5000004;28;20041;-73
2024/04/03 00:35:10;;;;;;;2.58;1.55;;;;;;;7.20;100.00;99087.50;4999960;28;20128;-73
2024/04/03 00:37:36;;;;;;;1.88;1.48;;;;;;;7.19;100.00;99083.97;4999939;28;20099;-73
2024/04/03 00:40:03;;;;;;;2.72;1.73;;;;;;;7.18;100.00;99086.84;5036476;28;20025;-73
2024/04/03 00:42:29;;;;;;;4.60;1.35;;;;;;;7.18;100.00;99086.84;5003947;28;20078;-73
2024/04/03 00:44:55;;;;;;;2.22;1.40;;;;;;;7.17;100.00;99087.84;5020564;28;20132;-73
2024/04/03 00:47:21;;;;;;;3.17;1.55;;;;;;;7.20;100.00;99092.84;5020219;28;20029;-73
2024/04/03 00:49:47;;;;;;;3.15;1.83;;;;;;;7.17;100.00;99093.19;5020156;28;20391;-73
2024/04/03 00:52:14;;;;;;;3.38;1.58;;;;;;;7.16;100.00;99089.72;5003832;28;20124;-73
2024/04/03 00:54:45;;;;;;;1.92;0.95;;;;;;;7.18;100.00;99094.88;5003804;28;20029;-73
2024/04/03 00:57:11;;;;;;;3.00;1.90;;;;;;;7.17;100.00;99103.88;5020064;28;20120;-73
2024/04/03 00:59:38;;;;;;;2.08;1.67;;;;;;;7.18;100.00;99094.88;5003994;28;20033;-73
2024/04/03 01:02:03;;;;;;;4.88;2.22;;;;;;;7.17;100.00;99093.19;5019800;28;20037;-73
2024/04/03 01:04:29;;;;;;;2.10;1.50;;;;;;;7.19;100.00;99085.81;5003569;28;20091;-73
2024/04/03 01:06:55;;;;;;;2.65;1.73;;;;;;;7.18;100.00;99090.34;5003504;28;20040;-73
2024/04/03 01:09:20;;;;;;;1.13;1.02;;;;;;;7.14;100.00;99090.91;5003527;28;20037;-73
2024/04/03 01:11:47;;;;;;;3.55;2.15;;;;;;;7.14;100.00;99093.59;5019507;28;20040;-73
2024/04/03 01:14:13;;;;;;;2.63;1.80;;;;;;;7.15;100.00;99089.91;5035934;28;20041;-73
2024/04/03 01:16:42;;;;;;;4.65;2.25;;;;;;;7.14;100.00;99094.41;5003353;28;20065;-73
2024/04/03 01:19:08;;;;;;;4.47;1.80;;;;;;;7.11;100.00;99096.66;5019450;28;20116;-73
2024/04/03 01:21:33;;;;;;;3.13;1.92;;;;;;;7.10;100.00;99090.50;5003273;28;20116;-73
2024/04/03 01:23:59;;;;;;;4.22;1.95;;;;;;;7.09;100.00;99093.34;5003212;28;20041;-73
2024/04/03 01:26:27;;;;;;;5.28;2.63;;;;;;;7.10;100.00;99098.50;5003178;28;20038;-73
2024/04/03 01:28:53;;;;;;;3.38;2.38;;;;;;;7.08;100.00;99086.38;5035898;28;20040;-73
2024/04/03 01:31:19;;;;;;;5.00;2.65;;;;;;;7.08;100.00;99081.84;5018873;28;20080;-73
2024/04/03 01:33:45;;;;;;;3.65;2.17;;;;;;;7.08;100.00;99081.84;5002593;28;20029;-73
2024/04/03 01:36:11;;;;;;;4.88;2.80;;;;;;;7.04;100.00;99084.09;5018820;28;20029;-73
2024/04/03 01:38:36;;;;;;;6.18;3.08;;;;;;;6.99;100.00;99083.84;5018674;28;20097;-74
2024/04/03 01:41:02;;;;;;;4.45;2.83;;;;;;;7.03;100.00;99084.25;5002891;28;20021;-73
2024/04/03 01:43:27;;;;;;;4.07;2.97;;;;;;;7.07;100.00;99090.06;5002925;28;20025;-73
2024/04/03 01:45:57;;;;;;;5.47;2.65;;;;;;;7.09;100.00;99093.34;5002819;28;20043;-73
2024/04/03 01:48:23;;;;;;;7.22;2.90;;;;;;;7.04;100.00;99101.97;5035509;28;20035;-73
2024/04/03 01:50:48;;;;;;;4.72;2.42;;;;;;;7.04;100.00;99097.44;5002678;28;20112;-73
2024/04/03 01:53:14;;;;;;;3.55;2.30;;;;;;;7.00;100.00;99095.34;5018787;28;20029;-74
2024/04/03 01:55:40;;;;;;;3.97;2.42;;;;;;;7.03;100.00;99090.44;5019103;28;20352;-73
2024/04/03 01:58:05;;;;;;;4.75;2.58;;;;;;;7.02;100.00;99102.16;5003494;28;20037;-73
2024/04/03 02:00:31;;;;;;;4.53;2.42;;;;;;;7.05;100.00;99104.44;5018326;28;20479;-73
2024/04/03 02:02:56;;;;;;;3.65;2.58;;;;;;;7.07;100.00;99106.09;5018786;28;20029;-73
2024/04/03 02:05:22;;;;;;;4.45;2.70;;;;;;;7.09;100.00;99106.72;5018811;28;20061;-73
2024/04/03 02:07:49;;;;;;;6.72;2.85;;;;;;;7.09;100.00;99094.16;5018704;28;20033;-73
2024/04/03 02:10:15;;;;;;;4.78;2.63;;;;;;;7.11;100.00;99096.66;5002585;28;20084;-73
2024/04/03 02:12:43;;;;;;;4.70;1.80;;;;;;;7.09;100.00;99094.16;5018556;28;20029;-73
2024/04/03 02:15:09;;;;;;;3.58;2.20;;;;;;;7.05;100.00;99090.25;5018509;28;20090;-73
2024/04/03 02:17:34;;;;;;;5.35;2.30;;;;;;;7.07;100.00;99096.22;5002234;28;20136;-73
2024/04/03 02:20:00;;;;;;;5.32;2.70;;;;;;;7.03;100.00;99095.78;5002197;28;20032;-73
2024/04/03 02:22:26;;;;;;;4.05;2.58;;;;;;;7.01;100.00;99092.50;5002987;28;20044;-73
2024/04/03 02:24:51;;;;;;;3.78;2.72;;;;;;;7.02;100.00;99087.97;5002075;28;20369;-73
2024/04/03 02:27:17;;;;;;;4.53;2.67;;;;;;;7.03;100.00;99087.75;5002069;28;20033;-73
2024/04/03 02:29:43;;;;;;;3.17;2.42;;;;;;;7.04;100.00;99085.94;5002119;28;20068;-73
2024/04/03 02:32:08;;;;;;;4.55;2.60;;;;;;;7.02;100.00;99086.13;5001970;28;20525;-73
2024/04/03 02:34:34;;;;;;;5.10;2.10;;;;;;;7.01;100.00;99084.47;5001882;28;20083;-73
2024/04/03 02:37:00;;;;;;;5.85;2.92;;;;;;;7.00;100.00;99100.69;5001691;28;20029;-73
2024/04/03 02:39:25;;;;;;;6.28;3.00;;;;;;;7.03;100.00;99095.78;5017944;28;20032;-73
2024/04/03 02:41:51;;;;;;;4.63;2.63;;;;;;;6.99;100.00;99094.53;5018050;28;20099;-73
2024/04/03 02:44:17;;;;;;;3.45;2.38;;;;;;;7.02;100.00;99104.00;5001782;28;20025;-73
2024/04/03 02:46:42;;;;;;;4.20;2.38;;;;;;;7.00;100.00;99104.19;5017672;28;20364;-73
2024/04/03 02:49:08;;;;;;;3.85;2.63;;;;;;;6.99;100.00;99099.06;5018005;28;20025;-74
2024/04/03 02:51:34;;;;;;;5.40;2.97;;;;;;;6.99;100.00;99094.53;5001357;28;20116;-73
2024/04/03 02:54:00;;;;;;;5.20;2.85;;;;;;;6.99;100.00;99099.88;5001643;28;20359;-73
2024/04/03 02:56:25;;;;;;;4.75;3.67;;;;;;;6.99;100.00;99099.88;5001207;28;20500;-73
2024/04/03 02:58:51;;;;;;;4.72;3.10;;;;;;;7.00;100.00;99101.50;5017708;28;20388;-73
2024/04/03 03:01:16;;;;;;;6.32;2.63;;;;;;;6.99;100.00;99107.88;5000870;28;20033;-73
2024/04/03 03:03:42;;;;;;;4.30;2.80;;;;;;;6.98;100.00;99098.19;5017209;28;20022;-73
2024/04/03 03:06:08;;;;;;;6.57;3.80;;;;;;;6.98;100.00;99105.38;5017423;28;20083;-73
2024/04/03 03:08:34;;;;;;;9.30;3.65;;;;;;;6.98;100.00;99110.75;5001305;28;20044;-73
2024/04/03 03:11:01;;;;;;;8.77;3.42;;;;;;;6.98;100.00;99113.41;5017454;28;20112;-73
2024/04/03 03:13:28;;;;;;;6.10;3.03;;;;;;;6.95;100.00;99111.94;5050391;28;20467;-73
2024/04/03 03:15:54;;;;;;;7.93;4.35;;;;;;;6.99;100.00;99120.44;5033867;28;20464;-73
2024/04/03 03:18:21;;;;;;;10.05;4.22;;;;;;;7.02;100.00;99110.16;5050257;28;20472;-73
2024/04/03 03:20:50;;;;;;;7.15;4.07;;;;;;;7.05;100.00;99120.47;5001085;28;20041;-73
2024/04/03 03:23:16;;;;;;;8.25;4.45;;;;;;;7.05;100.00;99125.00;5000872;28;20115;-74
2024/04/03 03:25:43;;;;;;;5.22;3.45;;;;;;;7.04;100.00;99123.34;5000731;28;20464;-73
2024/04/03 03:28:10;;;;;;;6.07;3.75;;;;;;;7.03;100.00;99125.16;5033524;28;20029;-74
2024/04/03 03:30:36;;;;;;;6.82;3.28;;;;;;;7.05;100.00;99133.00;5033604;28;20033;-73
2024/04/03 03:33:02;;;;;;;6.75;3.30;;;;;;;7.04;100.00;99131.38;5000453;28;20111;-73
2024/04/03 03:35:28;;;;;;;9.23;4.20;;;;;;;7.04;100.00;99132.19;5016901;28;20077;-73
2024/04/03 03:37:53;;;;;;;6.60;4.03;;;;;;;7.02;100.00;99125.38;5017042;28;20033;-73
2024/04/03 03:40:20;;;;;;;5.93;3.55;;;;;;;7.04;100.00;99123.34;5000373;28;20029;-73
2024/04/03 03:42:46;;;;;;;6.53;3.58;;;;;;;7.05;100.00;99122.31;5016502;28;20388;-74
2024/04/03 03:45:19;;;;;;;6.80;3.45;;;;;;;7.05;100.00;99125.00;5016913;28;20043;-73
2024/04/03 03:47:46;;;;;;;6.65;3.42;;;;;;;7.03;100.00;99125.16;5000615;28;20033;-73
2024/04/03 03:52:57;;;;;;;8.90;3.17;;;;;;;6.94;100.00;99125.53;5005460;28;20168;-73
2024/04/03 03:55:27;;;;;;;4.93;3.42;;;;;;;6.93;100.00;99126.53;5000297;28;20025;-73
2024/04/03 03:57:53;;;;;;;5.15;4.00;;;;;;;6.96;100.00;99136.81;5016870;28;20037;-73
2024/04/03 04:00:19;;;;;;;6.32;3.13;;;;;;;6.94;100.00;99129.00;4999902;28;20041;-73
2024/04/03 04:02:45;;;;;;;4.85;3.10;;;;;;;6.94;100.00;99136.22;5000332;28;20132;-73
2024/04/03 04:05:10;;;;;;;7.63;4.43;;;;;;;6.92;100.00;99140.91;5000873;28;20087;-73
2024/04/03 04:07:36;;;;;;;6.22;3.10;;;;;;;6.87;100.00;99133.47;5016566;28;20349;-73
2024/04/03 04:10:02;;;;;;;8.07;3.83;;;;;;;6.78;100.00;99132.78;5000214;28;20029;-73
2024/04/03 04:12:28;;;;;;;7.88;4.13;;;;;;;6.72;100.00;99138.03;4999538;28;20090;-73
2024/04/03 04:14:53;;;;;;;7.13;3.97;;;;;;;6.65;100.00;99145.19;5016297;28;20036;-74
2024/04/03 04:17:21;;;;;;;9.82;4.68;;;;;;;6.59;100.00;99136.91;5000146;28;20025;-73
2024/04/03 04:19:49;;;;;;;5.10;3.22;;;;;;;6.56;100.00;99153.31;5032525;28;20116;-73
2024/04/03 04:22:15;;;;;;;6.15;3.92;;;;;;;6.57;100.00;99149.63;5032587;28;20044;-74
2024/04/03 04:24:44;;;;;;;5.38;3.45;;;;;;;6.64;100.00;99148.84;5016373;28;20029;-73
2024/04/03 04:27:10;;;;;;;0.57;0.57;;;;;;;6.63;100.00;99147.19;4999936;28;20139;-73
2024/04/03 04:29:37;;;;;;;7.75;3.63;;;;;;;6.56;100.00;99142.63;5000541;28;20022;-73
2024/04/03 04:32:09;;;;;;;5.95;3.65;;;;;;;6.49;100.00;99141.72;4999532;28;20026;-73
2024/04/03 04:34:38;;;;;;;9.25;5.05;;;;;;;6.52;100.00;99148.53;5016550;28;20029;-73
2024/04/03 04:37:04;;;;;;;6.18;3.88;;;;;;;6.44;100.00;99154.00;5016261;28;20127;-73
2024/04/03 04:39:30;;;;;;;9.52;4.47;;;;;;;6.43;100.00;99152.31;4999754;28;20168;-73
2024/04/03 04:41:56;;;;;;;10.75;4.15;;;;;;;6.33;100.00;99155.31;5000241;28;20033;-73
2024/04/03 04:44:22;;;;;;;8.90;4.63;;;;;;;6.30;100.00;99163.69;4999903;28;20120;-73
2024/04/03 04:46:54;;;;;;;10.95;4.60;;;;;;;6.21;100.00;99157.63;5016182;28;20029;-73
2024/04/03 04:49:20;;;;;;;7.10;3.88;;;;;;;6.15;100.00;99163.72;4999783;28;20046;-73
2024/04/03 04:51:46;;;;;;;6.25;2.88;;;;;;;6.18;100.00;99155.31;4999765;28;20430;-73
2024/04/03 04:54:15;;;;;;;12.25;5.32;;;;;;;6.15;100.00;99148.50;5016917;28;20325;-73
2024/04/03 04:56:41;;;;;;;2.47;1.95;;;;;;;6.29;100.00;99164.69;5032136;28;20033;-73
2024/04/03 04:59:08;;;;;;;7.38;4.53;;;;;;;6.35;100.00;99166.59;5000097;28;20021;-73
2024/04/03 05:01:38;;;;;;;10.55;5.72;;;;;;;6.35;100.00;99166.59;4999774;28;20029;-73
2024/04/03 05:04:05;;;;;;;8.50;5.00;;;;;;;6.35;100.00;99161.25;5016303;28;20035;-73
2024/04/03 05:06:31;;;;;;;7.45;4.32;;;;;;;6.38;100.00;99166.25;5032574;28;20140;-73
2024/04/03 05:08:57;;;;;;;9.48;4.60;;;;;;;6.38;100.00;99172.41;4999612;28;20036;-73
2024/04/03 05:11:23;;;;;;;8.05;4.55;;;;;;;6.43;100.00;99173.66;5031909;28;20108;-73
2024/04/03 05:13:49;;;;;;;7.10;4.05;;;;;;;6.43;100.00;99169.19;4999549;28;20040;-73
2024/04/03 05:16:20;;;;;;;6.10;4.13;;;;;;;6.43;100.00;99173.66;5015803;28;20104;-73
2024/04/03 05:18:46;;;;;;;6.60;4.55;;;;;;;6.42;100.00;99174.69;5000050;28;20456;-73
2024/04/03 05:21:12;;;;;;;6.85;3.25;;;;;;;6.45;100.00;99172.47;4999610;28;20048;-73
2024/04/03 05:23:38;;;;;;;7.47;4.10;;;;;;;6.46;100.00;99178.66;5015731;28;20098;-73
2024/04/03 05:26:12;;;;;;;10.07;4.00;;;;;;;6.45;100.00;99183.16;5019498;28;20456;-73
2024/04/03 05:28:39;;;;;;;8.55;4.93;;;;;;;6.44;100.00;99186.03;5004108;28;20148;-73
2024/04/03 05:31:09;;;;;;;11.65;5.68;;;;;;;6.42;100.00;99199.56;5052146;28;20479;-73
2024/04/03 05:33:36;;;;;;;11.32;4.65;;;;;;;6.42;100.00;99199.56;5003091;28;20048;-73
2024/04/03 05:36:05;;;;;;;9.75;4.78;;;;;;;6.39;100.00;99199.94;5052183;28;20041;-73
2024/04/03 05:38:31;;;;;;;10.77;5.05;;;;;;;6.33;100.00;99196.16;4986962;28;20041;-73
2024/04/03 05:40:57;;;;;;;8.48;5.45;;;;;;;6.31;100.00;99192.84;5002869;28;20044;-74
2024/04/03 05:43:23;;;;;;;10.07;5.05;;;;;;;6.29;100.00;99199.38;5035492;28;20100;-74
2024/04/03 05:45:50;;;;;;;9.02;4.93;;;;;;;6.27;100.00;99209.41;5003394;28;20048;-73
2024/04/03 05:48:16;;;;;;;7.97;4.93;;;;;;;6.26;100.00;99215.78;5002860;28;20456;-73
2024/04/03 05:50:41;;;;;;;6.57;3.78;;;;;;;6.23;100.00;99211.66;5051885;28;20037;-74
2024/04/03 05:53:07;;;;;;;10.00;5.60;;;;;;;6.18;100.00;99219.38;5002655;28;20029;-73
2024/04/03 05:55:33;;;;;;;9.77;5.45;;;;;;;6.16;100.00;99205.38;5018873;28;20040;-73
2024/04/03 05:58:00;;;;;;;10.18;5.22;;;;;;;6.12;100.00;99217.47;5035955;28;20119;-73
2024/04/03 06:00:26;;;;;;;7.28;4.88;;;;;;;6.11;100.00;99221.13;5051107;28;20067;-74
2024/04/03 06:02:52;;;;;;;8.60;5.25;;;;;;;6.05;100.00;99220.03;5002833;28;20095;-73
2024/04/03 06:05:18;;;;;;;10.25;4.63;;;;;;;5.99;100.00;99225.28;5003012;28;20039;-73
2024/04/03 06:07:45;;;;;;;8.38;4.95;;;;;;;5.97;100.00;99214.78;5018599;28;20470;-73
2024/04/03 06:10:12;;;;;;;11.52;5.68;;;;;;;5.95;100.00;99214.13;5050989;28;20175;-73
2024/04/03 06:12:42;;;;;;;7.40;4.38;;;;;;;5.95;100.00;99222.13;5035062;28;20036;-73
2024/04/03 06:15:08;;;;;;;14.43;4.90;;;;;;;5.94;100.00;99225.81;5035581;28;20352;-73
2024/04/03 06:17:34;;;;;;;12.60;5.65;;;;;;;5.96;100.00;99231.81;5018511;28;20033;-73
2024/04/03 06:20:00;;;;;;;9.68;5.53;;;;;;;5.95;100.00;99235.47;5018861;28;20360;-73
2024/04/03 06:22:26;;;;;;;8.27;4.45;;;;;;;5.94;100.00;99234.66;5002126;28;20532;-73
2024/04/03 06:24:51;;;;;;;10.10;5.57;;;;;;;5.98;100.00;99239.59;5018899;28;20030;-73
2024/04/03 06:27:17;;;;;;;8.70;5.15;;;;;;;6.00;100.00;99249.09;5018661;28;20540;-73
2024/04/03 06:29:43;;;;;;;10.23;5.63;;;;;;;6.01;100.00;99250.75;5002071;28;20463;-73
2024/04/03 06:32:08;;;;;;;10.80;5.28;;;;;;;6.03;100.00;99250.56;5018038;28;20128;-74
2024/04/03 06:34:34;;;;;;;8.77;4.88;;;;;;;6.04;100.00;99245.06;5018267;28;20029;-73
2024/04/03 06:37:01;;;;;;;9.35;4.95;;;;;;;6.22;100.00;99250.03;5017764;28;20064;-73
2024/04/03 06:39:26;;;;;;;7.88;5.25;;;;;;;6.39;100.00;99253.31;5017760;28;20472;-73
2024/04/03 06:41:52;;;;;;;11.80;5.50;;;;;;;6.43;100.00;99257.28;5017627;28;20043;-73
2024/04/03 06:44:18;;;;;;;9.70;4.90;;;;;;;6.56;100.00;99267.28;5001540;28;20033;-73
2024/04/03 06:46:45;;;;;;;8.70;4.38;;;;;;;6.86;100.00;99270.75;5001700;28;20030;-73
2024/04/03 06:49:11;;;;;;;9.10;5.45;;;;;;;7.10;100.00;99272.25;5034511;28;20053;-73
2024/04/03 06:51:37;;;;;;;11.40;4.72;;;;;;;7.29;100.00;99270.78;5017831;28;20112;-73
2024/04/03 06:54:03;;;;;;;8.80;4.45;;;;;;;7.45;100.00;99265.16;5001475;28;20030;-73
2024/04/03 06:56:33;;;;;;;9.75;5.15;;;;;;;7.66;100.00;99271.53;5017951;28;20487;-73
2024/04/03 06:58:58;;;;;;;10.60;5.38;;;;;;;7.82;100.00;99276.59;5017802;28;20029;-73
2024/04/03 07:01:24;;;;;;;8.45;4.40;;;;;;;7.87;100.00;99279.50;5001516;28;20076;-73
2024/04/03 07:03:51;;;;;;;12.00;5.45;;;;;;;7.98;100.00;99280.81;5001053;28;20045;-73
2024/04/03 07:06:19;;;;;;;12.02;5.40;;;;;;;8.05;100.00;99287.06;5017841;28;20534;-73
2024/04/03 07:08:44;;;;;;;8.25;4.72;;;;;;;8.12;100.00;99292.44;5001065;28;20543;-74
2024/04/03 07:11:11;;;;;;;7.22;3.90;;;;;;;8.20;100.00;99294.97;5017564;28;20116;-73
2024/04/03 07:13:37;;;;;;;7.85;4.25;;;;;;;8.23;100.00;99291.06;5033488;28;20064;-74
2024/04/03 07:16:04;;;;;;;7.35;4.00;;;;;;;8.53;100.00;99297.06;5001990;28;20029;-74
2024/04/03 07:18:30;;;;;;;8.32;5.40;;;;;;;8.78;100.00;99295.50;5033613;28;20476;-74
2024/04/03 07:20:57;;;;;;;10.65;5.63;;;;;;;8.52;100.00;99290.88;5001030;28;20040;-73
2024/04/03 07:23:26;;;;;;;9.60;5.43;;;;;;;8.25;100.00;99294.38;5017176;28;20029;-74
2024/04/03 07:25:53;;;;;;;6.93;4.20;;;;;;;8.15;100.00;99292.06;5017409;28;20030;-74
2024/04/03 07:28:19;;;;;;;9.52;4.70;;;;;;;8.48;100.00;99300.31;5033434;28;20087;-73
2024/04/03 07:30:44;;;;;;;10.77;5.63;;;;;;;8.66;100.00;99307.00;5000848;28;20037;-73
2024/04/03 07:33:11;;;;;;;13.10;5.38;;;;;;;9.11;100.00;99305.53;5017697;28;20059;-73
2024/04/03 07:35:37;;;;;;;11.23;5.50;;;;;;;9.51;100.00;99296.75;5033344;28;20064;-73
2024/04/03 07:38:04;;;;;;;11.32;5.55;;;;;;;10.13;100.00;99295.47;5017451;28;20452;-73
2024/04/03 07:40:30;;;;;;;7.68;5.13;;;;;;;10.88;100.00;99287.88;5049341;28;20029;-73
2024/04/03 07:42:56;;;;;;;6.78;3.72;;;;;;;10.45;100.00;99283.06;5000899;28;20412;-73
2024/04/03 07:45:22;;;;;;;11.32;4.82;;;;;;;9.34;100.00;99289.09;5000502;28;20475;-74
2024/04/03 07:47:48;;;;;;;8.98;5.40;;;;;;;8.99;100.00;99289.19;5016681;28;20052;-73
2024/04/03 07:50:15;;;;;;;10.20;5.57;;;;;;;10.74;100.00;99287.09;5016826;28;20041;-74
2024/04/03 07:52:41;;;;;;;9.13;5.35;;;;;;;11.64;100.00;99286.16;5017405;28;20182;-74
2024/04/03 07:55:12;;;;;;;10.75;5.20;;;;;;;12.15;100.00;99290.53;5032984;28;20466;-74
2024/04/03 07:57:37;;;;;;;12.73;5.78;;;;;;;12.51;100.00;99288.91;5032763;28;20052;-73
2024/04/03 08:00:11;;;;;;;9.75;5.00;;;;;;;13.03;100.00;99300.13;5000089;28;20460;-74
2024/04/03 08:02:37;;;;;;;;;;;;;;;13.56;100.00;99307.50;5033303;28;20038;-74
2024/04/03 08:05:05;;;;;;;8.98;4.93;;;;;;;14.08;100.00;99313.13;5049412;28;19905;-74
2024/04/03 08:07:30;;;;;;;10.70;5.00;;;;;;;13.49;100.00;99309.47;5016676;28;20456;-74
2024/04/03 08:09:56;;;;;;;10.25;5.05;;;;;;;12.52;100.00;99312.97;5016507;28;20029;-74
2024/04/03 08:12:21;;;;;;;9.88;5.07;;;;;;;12.00;100.00;99312.41;4999897;28;20033;-74
2024/04/03 08:14:47;;;;;;;9.95;5.35;;;;;;;11.53;100.00;99324.56;5016492;28;20037;-74
2024/04/03 08:17:13;;;;;;;8.85;4.88;;;;;;;11.10;100.00;99323.34;5016547;28;20388;-74
2024/04/03 08:19:38;;;;;;;9.15;5.25;;;;;;;10.79;100.00;99322.22;5000348;28;20120;-74
2024/04/03 08:22:05;;;;;;;8.25;4.28;;;;;;;11.13;100.00;99338.22;5016631;28;20021;-74
2024/04/03 08:24:32;;;;;;;8.55;4.68;;;;;;;10.81;100.00;99337.34;5016402;28;20041;-74
2024/04/03 08:26:57;;;;;;;8.30;4.35;;;;;;;10.69;100.00;99351.44;5016236;28;20479;-73
2024/04/03 08:29:24;;;;;;;9.30;4.80;;;;;;;11.03;100.00;99349.44;5015820;28;20069;-76
2024/04/03 08:31:51;;;;;;;10.88;5.88;;;;;;;11.52;100.00;99350.66;5030919;28;20411;-76
2024/04/03 08:34:18;;;;;;;7.78;5.50;;;;;;;13.71;100.00;99355.69;5048947;28;20029;-76
2024/04/03 08:36:43;;;;;;;8.23;5.00;;;;;;;12.62;100.00;99360.13;5015847;28;20025;-75
2024/04/03 08:39:09;;;;;;;8.85;5.15;;;;;;;11.51;100.00;99356.25;5032115;28;20534;-75
2024/04/03 08:41:35;;;;;;;7.10;3.92;;;;;;;12.90;100.00;99359.63;5015816;28;20036;-75
2024/04/03 08:44:01;;;;;;;6.20;4.25;;;;;;;14.18;100.00;99360.34;5032650;28;20387;-76
2024/04/03 08:46:32;;;;;;;6.57;4.05;;;;;;;14.17;100.00;99361.44;5000083;28;20124;-75
2024/04/03 08:48:58;;;;;;;3.72;3.17;;;;;;;14.62;100.00;99367.09;5032348;28;20040;-75
2024/04/03 08:51:29;;;;;;;8.50;4.72;;;;;;;14.50;100.00;99360.84;5032088;28;20025;-75
2024/04/03 08:54:03;;;;;;;6.45;3.90;;;;;;;13.67;100.00;99372.59;5015856;28;20037;-75
2024/04/03 08:56:29;;;;;;;6.75;4.13;;;;;;;13.43;100.00;99377.09;5032165;28;20411;-75
2024/04/03 08:58:54;;;;;;;5.35;3.40;;;;;;;14.99;100.00;99383.06;5016299;28;20057;-75
2024/04/03 09:01:20;;;;;;;6.30;4.13;;;;;;;15.52;100.00;99375.72;5003422;28;20033;-75
2024/04/03 09:03:45;;;;;;;6.25;4.68;;;;;;;16.40;100.00;99370.75;5019917;28;20033;-74
2024/04/03 09:06:11;;;;;;;5.25;3.95;;;;;;;16.87;100.00;99375.81;5019927;28;20390;-74
2024/04/03 09:08:42;;;;;;;5.70;3.60;;;;;;;15.39;100.00;99371.41;5035883;28;20025;-75
2024/04/03 09:11:08;;;;;;;3.58;2.72;;;;;;;13.99;100.00;99379.38;5036519;28;20372;-74
2024/04/03 09:13:33;;;;;;;4.55;2.88;;;;;;;13.28;100.00;99377.47;5003364;28;20456;-74
2024/04/03 09:16:01;;;;;;;5.45;3.22;;;;;;;15.10;100.00;99379.50;5035981;28;20112;-74
2024/04/03 09:18:27;;;;;;;5.80;3.50;;;;;;;15.66;100.00;99376.25;5003469;28;20040;-73
2024/04/03 09:20:53;;;;;;;5.50;3.53;;;;;;;16.97;100.00;99375.94;5019202;28;20028;-74
2024/04/03 09:23:20;;;;;;;3.67;2.10;;;;;;;17.87;100.00;99368.28;5019712;28;20043;-74
2024/04/03 09:25:45;;;;;;;3.05;2.50;;;;;;;17.29;100.00;99377.97;5003271;28;20029;-74
2024/04/03 09:28:12;;;;;;;4.22;3.22;;;;;;;17.93;100.00;99374.59;5052094;28;20021;-74
2024/04/03 09:30:47;;;;;;;5.05;3.47;;;;;;;17.71;100.00;99375.44;5019987;28;20021;-75
2024/04/03 09:33:13;;;;;;;4.40;3.30;;;;;;;18.11;100.00;99382.38;5035807;28;20029;-74
2024/04/03 09:35:40;;;;;;;4.15;3.35;;;;;;;17.84;100.00;99385.13;5003156;28;20456;-74
2024/04/03 09:38:06;;;;;;;5.32;3.40;;;;;;;18.51;100.00;99385.66;5035317;28;20092;-73
2024/04/03 09:40:32;;;;;;;5.25;3.50;;;;;;;18.94;100.00;99387.31;5002711;28;20074;-74
2024/04/03 09:43:08;;;;;;;4.15;3.30;;;;;;;18.62;100.00;99390.91;5002790;28;20025;-75
2024/04/03 09:45:34;;;;;;;3.38;3.08;;;;;;;19.69;100.00;99381.66;5019734;28;20469;-74
2024/04/03 09:48:02;;;;;;;4.75;3.78;;;;;;;20.64;100.00;99381.97;5035086;28;20096;-74
2024/04/03 09:50:48;;;;;;;4.30;3.85;;;;;;;21.42;100.00;99382.56;5019226;28;20120;-74
2024/04/03 09:53:15;;;;;;;4.70;3.65;;;;;;;21.50;100.00;99381.97;5002157;28;20033;-74
2024/04/03 09:55:41;;;;;;;3.60;3.13;;;;;;;21.18;100.00;99374.97;5003020;28;20037;-74
2024/04/03 09:58:14;;;;;;;3.30;2.63;;;;;;;18.20;100.00;99375.34;5035146;28;20068;-74
2024/04/03 10:00:49;;;;;;;2.88;2.55;;;;;;;16.73;100.00;99363.63;5002235;28;20403;-74
2024/04/03 10:03:27;;;;;;;3.03;2.55;;;;;;;18.69;100.00;99368.91;5018644;28;20049;-74
2024/04/03 10:06:06;;;;;;;3.47;2.92;;;;;;;20.10;100.00;99365.31;5018748;28;20047;-75
2024/04/03 10:08:36;;;;;;;5.55;2.78;;;;;;;19.14;100.00;99355.81;5018529;28;20031;-74
2024/04/03 10:11:09;;;;;;;3.63;2.97;;;;;;;18.87;100.00;99357.59;5017580;28;20122;-74
2024/04/03 10:13:35;;;;;;;;;;;;;;;19.68;100.00;99350.81;5052207;28;20567;-74
2024/04/03 10:16:06;;;;;;;3.22;2.60;;;;;;;20.74;100.00;99358.44;5034871;28;19905;-74
2024/04/03 10:18:43;;;;;;;2.92;2.22;;;;;;;19.75;100.00;99364.19;5001985;28;20025;-75
2024/04/03 10:21:10;;;;;;;3.25;1.90;;;;;;;18.62;100.00;99373.75;5018767;28;20141;-75
2024/04/03 10:23:49;;;;;;;2.20;1.88;;;;;;;18.58;100.00;99368.03;5018083;28;20479;-75
2024/04/03 10:26:17;;;;;;;3.72;2.00;;;;;;;16.79;100.00;99371.63;5002021;28;20033;-74
2024/04/03 10:28:44;;;;;;;2.67;2.10;;;;;;;15.97;100.00;99372.22;5001883;28;20030;-75
2024/04/03 10:31:16;;;;;;;2.50;2.22;;;;;;;15.44;100.00;99362.56;5034352;28;20367;-75
2024/04/03 10:33:42;;;;;;;4.20;2.35;;;;;;;15.33;100.00;99369.69;5018669;28;20056;-74
2024/04/03 10:36:08;;;;;;;1.88;1.45;;;;;;;15.94;100.00;99368.13;5034787;28;20118;-74
2024/04/03 10:38:36;;;;;;;3.25;1.63;;;;;;;16.51;100.00;99372.53;5034475;28;20018;-75
2024/04/03 10:41:04;;;;;;;1.73;1.52;;;;;;;18.45;100.00;99368.47;5035169;28;20052;-75
2024/04/03 10:43:29;;;;;;;4.13;1.67;;;;;;;19.50;100.00;99363.03;5017822;28;20126;-74
2024/04/03 10:45:55;;;;;;;5.10;1.83;;;;;;;19.97;100.00;99363.94;5034773;28;20471;-75
2024/04/03 10:48:22;;;;;;;2.25;1.65;;;;;;;20.66;100.00;99362.56;5017958;28;20480;-74
2024/04/03 10:50:48;;;;;;;2.25;1.50;;;;;;;21.04;100.00;99368.47;5018209;28;20022;-74
2024/04/03 10:53:14;;;;;;;2.30;1.20;;;;;;;21.57;100.00;99366.06;5001562;28;20025;-74
2024/04/03 10:55:40;;;;;;;2.28;1.50;;;;;;;19.91;100.00;99365.84;5001504;28;20037;-74
2024/04/03 10:58:08;;;;;;;2.40;1.30;;;;;;;18.06;100.00;99376.88;5017757;28;20032;-74
2024/04/03 11:00:35;;;;;;;2.40;1.10;;;;;;;16.66;100.00;99371.94;5017579;28;20053;-74
2024/04/03 11:03:04;;;;;;;2.38;1.42;;;;;;;15.84;100.00;99378.78;5033732;28;20124;-74
2024/04/03 11:05:31;;;;;;;3.63;2.15;;;;;;;14.80;100.00;99382.38;5017233;28;20091;-74
2024/04/03 11:07:57;;;;;;;2.95;2.00;;;;;;;13.85;100.00;99383.34;5001460;28;20033;-74
2024/04/03 11:10:24;;;;;;;5.18;2.05;;;;;;;13.16;100.00;99385.50;5033598;28;20026;-73
2024/04/03 11:12:50;;;;;;;2.67;2.10;;;;;;;12.64;100.00;99387.72;5017785;28;20475;-75
2024/04/03 11:15:22;;;;;;;2.20;1.70;;;;;;;12.31;100.00;99399.63;5001046;28;20121;-75
2024/04/03 11:17:49;;;;;;;2.87;1.57;;;;;;;11.98;100.00;99400.69;5001202;28;20033;-74
2024/04/03 11:20:15;;;;;;;1.80;1.27;;;;;;;11.68;100.00;99397.78;5000425;28;20044;-75
2024/04/03 11:22:40;;;;;;;3.35;1.60;;;;;;;11.50;100.00;99400.34;5016488;28;20472;-75
2024/04/03 11:25:12;;;;;;;2.70;1.50;;;;;;;11.38;100.00;99403.72;5016730;28;20026;-75
2024/04/03 11:27:40;;;;;;;3.15;1.70;;;;;;;11.33;100.00;99408.09;5001158;28;20072;-75
2024/04/03 11:30:07;;;;;;;4.03;2.40;;;;;;;11.12;100.00;99407.34;5000176;28;20091;-74